sensor_id;sensor_type;location;lat;lon;timestamp;pressure;altitude;pressure_sealevel;temperature;humidity
27712;BME280;2377;51.734;8.950;2023-03-01T00:01:13;99096.63;;;-1.09;66.86
27712;BME280;2377;51.734;8.950;2023-03-01T00:03:41;99100.25;;;-1.13;67.16
27712;BME280;2377;51.734;8.950;2023-03-01T00:06:10;99099.69;;;-1.17;67.24
27712;BME280;2377;51.734;8.950;2023-03-01T00:08:37;99099.91;;;-1.20;67.50
27712;BME280;2377;51.734;8.950;2023-03-01T00:11:09;99096.00;;;-1.24;67.49
27712;BME280;2377;51.734;8.950;2023-03-01T00:13:36;99096.31;;;-1.29;67.18
27712;BME280;2377;51.734;8.950;2023-03-01T00:16:05;99095.00;;;-1.34;68.07
27712;BME280;2377;51.734;8.950;2023-03-01T00:18:33;99104.47;;;-1.38;68.34
27712;BME280;2377;51.734;8.950;2023-03-01T00:21:01;99097.34;;;-1.44;68.37
27712;BME280;2377;51.734;8.950;2023-03-01T00:23:29;99101.66;;;-1.46;68.86
27712;BME280;2377;51.734;8.950;2023-03-01T00:25:56;99096.75;;;-1.47;68.42
27712;BME280;2377;51.734;8.950;2023-03-01T00:28:23;99094.44;;;-1.51;68.56
27712;BME280;2377;51.734;8.950;2023-03-01T00:30:50;99096.16;;;-1.51;68.69
27712;BME280;2377;51.734;8.950;2023-03-01T00:33:18;99090.56;;;-1.55;69.05
27712;BME280;2377;51.734;8.950;2023-03-01T00:35:45;99087.34;;;-1.57;68.89
27712;BME280;2377;51.734;8.950;2023-03-01T00:38:12;99098.25;;;-1.58;68.70
27712;BME280;2377;51.734;8.950;2023-03-01T00:40:41;99100.09;;;-1.60;68.86
27712;BME280;2377;51.734;8.950;2023-03-01T00:43:08;99097.19;;;-1.66;68.95
27712;BME280;2377;51.734;8.950;2023-03-01T00:45:35;99094.88;;;-1.70;69.02
27712;BME280;2377;51.734;8.950;2023-03-01T00:48:03;99090.16;;;-1.74;69.27
27712;BME280;2377;51.734;8.950;2023-03-01T00:50:30;99090.38;;;-1.77;69.35
27712;BME280;2377;51.734;8.950;2023-03-01T00:52:57;99090.28;;;-1.76;69.10
27712;BME280;2377;51.734;8.950;2023-03-01T00:55:26;99099.59;;;-1.78;69.27
27712;BME280;2377;51.734;8.950;2023-03-01T00:57:54;99100.81;;;-1.83;69.32
27712;BME280;2377;51.734;8.950;2023-03-01T01:00:21;99109.22;;;-1.84;69.69
27712;BME280;2377;51.734;8.950;2023-03-01T01:02:49;99111.81;;;-1.86;69.53
27712;BME280;2377;51.734;8.950;2023-03-01T01:05:16;99106.22;;;-1.89;70.35
27712;BME280;2377;51.734;8.950;2023-03-01T01:07:46;99097.78;;;-1.88;70.33
27712;BME280;2377;51.734;8.950;2023-03-01T01:10:14;99099.28;;;-1.86;70.19
27712;BME280;2377;51.734;8.950;2023-03-01T01:12:44;99086.66;;;-1.84;69.95
27712;BME280;2377;51.734;8.950;2023-03-01T01:15:13;99092.38;;;-1.82;69.95
27712;BME280;2377;51.734;8.950;2023-03-01T01:17:42;99087.38;;;-1.82;69.82
27712;BME280;2377;51.734;8.950;2023-03-01T01:20:11;99078.28;;;-1.83;69.55
27712;BME280;2377;51.734;8.950;2023-03-01T01:22:38;99085.88;;;-1.85;69.39
27712;BME280;2377;51.734;8.950;2023-03-01T01:25:06;99080.16;;;-1.87;69.62
27712;BME280;2377;51.734;8.950;2023-03-01T01:27:33;99079.53;;;-1.91;70.11
27712;BME280;2377;51.734;8.950;2023-03-01T01:30:00;99075.66;;;-1.95;69.92
27712;BME280;2377;51.734;8.950;2023-03-01T01:32:29;99074.97;;;-1.97;70.25
27712;BME280;2377;51.734;8.950;2023-03-01T01:34:56;99060.81;;;-1.98;69.96
27712;BME280;2377;51.734;8.950;2023-03-01T01:37:23;99055.81;;;-1.98;70.38
27712;BME280;2377;51.734;8.950;2023-03-01T01:39:57;99045.78;;;-1.98;69.74
27712;BME280;2377;51.734;8.950;2023-03-01T01:42:25;99048.41;;;-1.99;69.65
27712;BME280;2377;51.734;8.950;2023-03-01T01:45:35;99052.00;;;-2.03;69.69
27712;BME280;2377;51.734;8.950;2023-03-01T01:48:10;99054.91;;;-2.09;69.97
27712;BME280;2377;51.734;8.950;2023-03-01T01:50:41;99050.19;;;-2.14;70.23
27712;BME280;2377;51.734;8.950;2023-03-01T01:53:14;99058.53;;;-2.14;70.34
27712;BME280;2377;51.734;8.950;2023-03-01T01:55:47;99046.03;;;-2.14;70.53
27712;BME280;2377;51.734;8.950;2023-03-01T01:58:19;99047.69;;;-2.14;70.45
27712;BME280;2377;51.734;8.950;2023-03-01T02:00:48;99041.09;;;-2.15;70.92
27712;BME280;2377;51.734;8.950;2023-03-01T02:03:23;99041.09;;;-2.15;70.57
27712;BME280;2377;51.734;8.950;2023-03-01T02:06:01;99051.81;;;-2.13;71.02
27712;BME280;2377;51.734;8.950;2023-03-01T02:08:35;99048.41;;;-2.12;70.53
27712;BME280;2377;51.734;8.950;2023-03-01T02:11:04;99041.09;;;-2.15;70.22
27712;BME280;2377;51.734;8.950;2023-03-01T02:13:32;99040.88;;;-2.12;70.40
27712;BME280;2377;51.734;8.950;2023-03-01T02:16:03;99042.50;;;-2.11;70.85
27712;BME280;2377;51.734;8.950;2023-03-01T02:18:32;99034.28;;;-2.13;70.77
27712;BME280;2377;51.734;8.950;2023-03-01T02:21:13;99027.88;;;-2.17;70.80
27712;BME280;2377;51.734;8.950;2023-03-01T02:23:44;99028.88;;;-2.20;71.15
27712;BME280;2377;51.734;8.950;2023-03-01T02:26:21;99026.47;;;-2.21;70.92
27712;BME280;2377;51.734;8.950;2023-03-01T02:28:52;99018.28;;;-2.23;71.07
27712;BME280;2377;51.734;8.950;2023-03-01T02:31:21;99019.97;;;-2.24;70.93
27712;BME280;2377;51.734;8.950;2023-03-01T02:34:06;99034.19;;;-2.24;71.57
27712;BME280;2377;51.734;8.950;2023-03-01T02:36:37;99028.59;;;-2.28;71.18
27712;BME280;2377;51.734;8.950;2023-03-01T02:39:07;99026.09;;;-2.28;71.31
27712;BME280;2377;51.734;8.950;2023-03-01T02:41:45;99013.44;;;-2.26;71.91
27712;BME280;2377;51.734;8.950;2023-03-01T02:44:14;99018.59;;;-2.28;71.99
27712;BME280;2377;51.734;8.950;2023-03-01T02:46:44;99025.25;;;-2.28;72.20
27712;BME280;2377;51.734;8.950;2023-03-01T02:49:23;99016.16;;;-2.29;72.00
27712;BME280;2377;51.734;8.950;2023-03-01T02:54:59;99010.25;;;-2.28;71.95
27712;BME280;2377;51.734;8.950;2023-03-01T02:57:30;99006.94;;;-2.29;71.88
27712;BME280;2377;51.734;8.950;2023-03-01T03:00:04;99003.34;;;-2.25;71.85
27712;BME280;2377;51.734;8.950;2023-03-01T03:02:34;99005.47;;;-2.19;71.92
27712;BME280;2377;51.734;8.950;2023-03-01T03:05:09;99000.31;;;-2.17;72.54
27712;BME280;2377;51.734;8.950;2023-03-01T03:07:38;98990.53;;;-2.20;72.75
27712;BME280;2377;51.734;8.950;2023-03-01T03:10:10;98984.91;;;-2.24;72.20
27712;BME280;2377;51.734;8.950;2023-03-01T03:12:38;98979.91;;;-2.24;71.99
27712;BME280;2377;51.734;8.950;2023-03-01T03:15:09;98970.00;;;-2.25;71.91
27712;BME280;2377;51.734;8.950;2023-03-01T03:17:41;98968.38;;;-2.26;71.64
27712;BME280;2377;51.734;8.950;2023-03-01T03:20:12;98960.00;;;-2.25;71.82
27712;BME280;2377;51.734;8.950;2023-03-01T03:22:46;98965.41;;;-2.31;71.49
27712;BME280;2377;51.734;8.950;2023-03-01T03:25:13;98964.19;;;-2.39;71.95
27712;BME280;2377;51.734;8.950;2023-03-01T03:27:43;98968.59;;;-2.42;72.03
27712;BME280;2377;51.734;8.950;2023-03-01T03:30:16;98967.00;;;-2.43;72.08
27712;BME280;2377;51.734;8.950;2023-03-01T03:32:46;98957.78;;;-2.43;72.05
27712;BME280;2377;51.734;8.950;2023-03-01T03:35:19;98966.22;;;-2.44;72.43
27712;BME280;2377;51.734;8.950;2023-03-01T03:37:46;98969.59;;;-2.45;72.11
27712;BME280;2377;51.734;8.950;2023-03-01T03:40:31;98978.00;;;-2.46;71.62
27712;BME280;2377;51.734;8.950;2023-03-01T03:42:58;98972.31;;;-2.48;72.10
27712;BME280;2377;51.734;8.950;2023-03-01T03:45:27;98979.91;;;-2.49;71.45
27712;BME280;2377;51.734;8.950;2023-03-01T03:47:54;98973.53;;;-2.53;71.55
27712;BME280;2377;51.734;8.950;2023-03-01T03:50:21;98973.69;;;-2.57;71.69
27712;BME280;2377;51.734;8.950;2023-03-01T03:52:48;98969.00;;;-2.61;72.07
27712;BME280;2377;51.734;8.950;2023-03-01T03:55:16;98976.72;;;-2.64;72.13
27712;BME280;2377;51.734;8.950;2023-03-01T03:57:47;98969.19;;;-2.64;71.90
27712;BME280;2377;51.734;8.950;2023-03-01T04:00:20;98981.78;;;-2.66;71.61
27712;BME280;2377;51.734;8.950;2023-03-01T04:02:49;98981.91;;;-2.67;72.19
27712;BME280;2377;51.734;8.950;2023-03-01T04:05:18;98971.19;;;-2.69;71.91
27712;BME280;2377;51.734;8.950;2023-03-01T04:07:45;98978.63;;;-2.68;71.94
27712;BME280;2377;51.734;8.950;2023-03-01T04:10:16;98975.41;;;-2.70;71.90
27712;BME280;2377;51.734;8.950;2023-03-01T04:12:44;98971.41;;;-2.72;71.99
27712;BME280;2377;51.734;8.950;2023-03-01T04:15:12;98975.78;;;-2.76;71.98
27712;BME280;2377;51.734;8.950;2023-03-01T04:17:39;98971.00;;;-2.79;71.66
27712;BME280;2377;51.734;8.950;2023-03-01T04:20:12;98967.69;;;-2.80;72.61
27712;BME280;2377;51.734;8.950;2023-03-01T04:22:40;98969.00;;;-2.87;72.56
27712;BME280;2377;51.734;8.950;2023-03-01T04:25:08;98967.38;;;-2.88;72.93
27712;BME280;2377;51.734;8.950;2023-03-01T04:27:40;98966.78;;;-2.91;73.11
27712;BME280;2377;51.734;8.950;2023-03-01T04:30:10;98962.66;;;-2.92;72.80
27712;BME280;2377;51.734;8.950;2023-03-01T04:32:37;98971.97;;;-2.94;73.02
27712;BME280;2377;51.734;8.950;2023-03-01T04:35:04;98967.97;;;-2.97;72.58
27712;BME280;2377;51.734;8.950;2023-03-01T04:37:33;98965.47;;;-2.97;72.47
27712;BME280;2377;51.734;8.950;2023-03-01T04:40:00;98967.97;;;-2.97;72.59
27712;BME280;2377;51.734;8.950;2023-03-01T04:42:32;98972.97;;;-2.97;72.66
27712;BME280;2377;51.734;8.950;2023-03-01T04:44:59;98964.75;;;-2.99;72.77
27712;BME280;2377;51.734;8.950;2023-03-01T04:47:26;98958.16;;;-3.00;72.47
27712;BME280;2377;51.734;8.950;2023-03-01T04:49:53;98954.16;;;-3.03;73.26
27712;BME280;2377;51.734;8.950;2023-03-01T04:52:20;98958.38;;;-3.03;73.09
27712;BME280;2377;51.734;8.950;2023-03-01T04:54:48;98959.88;;;-3.01;73.12
27712;BME280;2377;51.734;8.950;2023-03-01T04:57:15;98959.16;;;-3.03;72.67
27712;BME280;2377;51.734;8.950;2023-03-01T04:59:43;98960.88;;;-3.03;72.93
27712;BME280;2377;51.734;8.950;2023-03-01T05:02:10;98965.88;;;-3.03;72.97
27712;BME280;2377;51.734;8.950;2023-03-01T05:04:37;98971.75;;;-3.04;72.72
27712;BME280;2377;51.734;8.950;2023-03-01T05:07:04;98973.38;;;-3.03;72.59
27712;BME280;2377;51.734;8.950;2023-03-01T05:09:31;98970.88;;;-3.03;72.30
27712;BME280;2377;51.734;8.950;2023-03-01T05:11:59;98980.75;;;-3.02;72.42
27712;BME280;2377;51.734;8.950;2023-03-01T05:14:26;98968.38;;;-3.03;72.16
27712;BME280;2377;51.734;8.950;2023-03-01T05:16:54;98970.25;;;-3.07;72.74
27712;BME280;2377;51.734;8.950;2023-03-01T05:19:29;98969.53;;;-3.09;72.34
27712;BME280;2377;51.734;8.950;2023-03-01T05:21:56;98968.03;;;-3.11;72.80
27712;BME280;2377;51.734;8.950;2023-03-01T05:24:33;98960.91;;;-3.17;72.99
27712;BME280;2377;51.734;8.950;2023-03-01T05:27:02;98957.72;;;-3.20;73.14
27712;BME280;2377;51.734;8.950;2023-03-01T05:29:31;98949.50;;;-3.22;73.04
27712;BME280;2377;51.734;8.950;2023-03-01T05:32:02;98952.00;;;-3.22;73.28
27712;BME280;2377;51.734;8.950;2023-03-01T05:34:32;98952.72;;;-3.20;73.08
27712;BME280;2377;51.734;8.950;2023-03-01T05:37:00;98942.81;;;-3.21;73.58
27712;BME280;2377;51.734;8.950;2023-03-01T05:39:29;98939.59;;;-3.23;72.87
27712;BME280;2377;51.734;8.950;2023-03-01T05:42:01;98947.09;;;-3.23;73.36
27712;BME280;2377;51.734;8.950;2023-03-01T05:44:29;98941.50;;;-3.27;73.25
27712;BME280;2377;51.734;8.950;2023-03-01T05:46:56;98941.59;;;-3.28;72.77
27712;BME280;2377;51.734;8.950;2023-03-01T05:49:24;98945.09;;;-3.31;73.13
27712;BME280;2377;51.734;8.950;2023-03-01T05:51:53;98950.28;;;-3.34;73.21
27712;BME280;2377;51.734;8.950;2023-03-01T05:54:21;98948.88;;;-3.38;73.30
27712;BME280;2377;51.734;8.950;2023-03-01T05:56:48;98952.25;;;-3.39;72.91
27712;BME280;2377;51.734;8.950;2023-03-01T05:59:17;98949.88;;;-3.41;73.39
27712;BME280;2377;51.734;8.950;2023-03-01T06:01:44;98956.66;;;-3.43;73.50
27712;BME280;2377;51.734;8.950;2023-03-01T06:04:11;98957.44;;;-3.42;73.98
27712;BME280;2377;51.734;8.950;2023-03-01T06:06:38;98964.16;;;-3.43;74.39
27712;BME280;2377;51.734;8.950;2023-03-01T06:09:05;98960.84;;;-3.43;73.97
27712;BME280;2377;51.734;8.950;2023-03-01T06:11:35;98959.22;;;-3.44;74.31
27712;BME280;2377;51.734;8.950;2023-03-01T06:14:04;98961.72;;;-3.44;74.71
27712;BME280;2377;51.734;8.950;2023-03-01T06:16:33;98941.84;;;-3.46;74.54
27712;BME280;2377;51.734;8.950;2023-03-01T06:19:00;98952.66;;;-3.45;75.08
27712;BME280;2377;51.734;8.950;2023-03-01T06:21:27;98953.53;;;-3.46;74.86
27712;BME280;2377;51.734;8.950;2023-03-01T06:23:54;98952.66;;;-3.45;74.53
27712;BME280;2377;51.734;8.950;2023-03-01T06:26:21;98956.84;;;-3.46;75.27
27712;BME280;2377;51.734;8.950;2023-03-01T06:28:48;98952.72;;;-3.47;75.08
27712;BME280;2377;51.734;8.950;2023-03-01T06:31:15;98946.94;;;-3.47;75.09
27712;BME280;2377;51.734;8.950;2023-03-01T06:33:47;98946.94;;;-3.47;75.00
27712;BME280;2377;51.734;8.950;2023-03-01T06:36:14;98951.84;;;-3.46;75.83
27712;BME280;2377;51.734;8.950;2023-03-01T06:38:44;98952.53;;;-3.44;75.55
27712;BME280;2377;51.734;8.950;2023-03-01T06:41:11;98954.03;;;-3.41;75.18
27712;BME280;2377;51.734;8.950;2023-03-01T06:43:38;98950.47;;;-3.37;75.60
27712;BME280;2377;51.734;8.950;2023-03-01T06:46:06;98947.88;;;-3.35;75.59
27712;BME280;2377;51.734;8.950;2023-03-01T06:48:35;98954.09;;;-3.28;75.25
27712;BME280;2377;51.734;8.950;2023-03-01T06:51:04;98958.59;;;-3.21;75.94
27712;BME280;2377;51.734;8.950;2023-03-01T06:53:31;98957.31;;;-3.13;75.31
27712;BME280;2377;51.734;8.950;2023-03-01T06:55:59;98963.53;;;-3.06;75.25
27712;BME280;2377;51.734;8.950;2023-03-01T06:58:26;98964.75;;;-2.99;75.59
27712;BME280;2377;51.734;8.950;2023-03-01T07:00:53;98959.38;;;-2.93;75.50
27712;BME280;2377;51.734;8.950;2023-03-01T07:03:20;98951.56;;;-2.88;76.59
27712;BME280;2377;51.734;8.950;2023-03-01T07:05:49;98950.06;;;-2.78;76.60
27712;BME280;2377;51.734;8.950;2023-03-01T07:08:19;98952.59;;;-2.65;76.81
27712;BME280;2377;51.734;8.950;2023-03-01T07:10:46;98942.78;;;-2.56;76.61
27712;BME280;2377;51.734;8.950;2023-03-01T07:13:13;98943.78;;;-2.45;76.48
27712;BME280;2377;51.734;8.950;2023-03-01T07:15:40;98935.56;;;-2.35;76.54
27712;BME280;2377;51.734;8.950;2023-03-01T07:18:08;98935.53;;;-2.22;76.49
27712;BME280;2377;51.734;8.950;2023-03-01T07:20:35;98926.22;;;-2.07;76.77
27712;BME280;2377;51.734;8.950;2023-03-01T07:23:02;98931.06;;;-1.93;76.80
27712;BME280;2377;51.734;8.950;2023-03-01T07:25:30;98921.41;;;-1.86;76.72
27712;BME280;2377;51.734;8.950;2023-03-01T07:27:58;98931.41;;;-1.73;76.88
27712;BME280;2377;51.734;8.950;2023-03-01T07:30:25;98926.22;;;-1.59;76.98
27712;BME280;2377;51.734;8.950;2023-03-01T07:32:55;98926.06;;;-1.44;76.97
27712;BME280;2377;51.734;8.950;2023-03-01T07:35:23;98930.91;;;-1.30;76.48
27712;BME280;2377;51.734;8.950;2023-03-01T07:37:50;98923.75;;;-1.23;76.00
27712;BME280;2377;51.734;8.950;2023-03-01T07:40:17;98922.50;;;-1.18;76.25
27712;BME280;2377;51.734;8.950;2023-03-01T07:42:46;98924.63;;;-1.00;76.28
27712;BME280;2377;51.734;8.950;2023-03-01T07:45:13;98932.97;;;-0.89;76.02
27712;BME280;2377;51.734;8.950;2023-03-01T07:47:40;98931.50;;;-0.80;76.00
27712;BME280;2377;51.734;8.950;2023-03-01T07:50:09;98937.69;;;-0.73;75.35
27712;BME280;2377;51.734;8.950;2023-03-01T07:52:36;98940.50;;;-0.66;74.97
27712;BME280;2377;51.734;8.950;2023-03-01T07:55:04;98933.22;;;-0.58;74.32
27712;BME280;2377;51.734;8.950;2023-03-01T07:57:32;98928.31;;;-0.48;74.27
27712;BME280;2377;51.734;8.950;2023-03-01T08:00:00;98925.38;;;-0.42;72.97
27712;BME280;2377;51.734;8.950;2023-03-01T08:02:27;98931.06;;;-0.29;73.13
27712;BME280;2377;51.734;8.950;2023-03-01T08:04:54;98933.81;;;-0.20;73.43
27712;BME280;2377;51.734;8.950;2023-03-01T08:07:21;98927.25;;;-0.12;72.89
27712;BME280;2377;51.734;8.950;2023-03-01T08:09:48;98932.19;;;0.01;72.87
27712;BME280;2377;51.734;8.950;2023-03-01T08:12:16;98926.44;;;0.10;72.01
27712;BME280;2377;51.734;8.950;2023-03-01T08:14:43;98927.69;;;0.16;71.74
27712;BME280;2377;51.734;8.950;2023-03-01T08:17:13;98921.06;;;0.26;71.09
27712;BME280;2377;51.734;8.950;2023-03-01T08:19:42;98923.84;;;0.33;71.01
27712;BME280;2377;51.734;8.950;2023-03-01T08:22:09;98924.75;;;0.43;71.32
27712;BME280;2377;51.734;8.950;2023-03-01T08:24:36;98921.41;;;0.54;71.57
27712;BME280;2377;51.734;8.950;2023-03-01T08:27:03;98920.31;;;0.68;71.08
27712;BME280;2377;51.734;8.950;2023-03-01T08:29:32;98926.22;;;0.78;71.07
27712;BME280;2377;51.734;8.950;2023-03-01T08:31:59;98925.25;;;0.90;69.88
27712;BME280;2377;51.734;8.950;2023-03-01T08:34:28;98938.44;;;1.03;68.50
27712;BME280;2377;51.734;8.950;2023-03-01T08:36:56;98934.69;;;1.19;68.66
27712;BME280;2377;51.734;8.950;2023-03-01T08:39:24;98931.47;;;1.38;68.66
27712;BME280;2377;51.734;8.950;2023-03-01T08:41:51;98928.91;;;1.59;67.94
27712;BME280;2377;51.734;8.950;2023-03-01T08:44:18;98930.81;;;1.76;66.52
27712;BME280;2377;51.734;8.950;2023-03-01T08:46:47;98929.16;;;1.96;66.00
27712;BME280;2377;51.734;8.950;2023-03-01T08:49:18;98935.00;;;2.06;64.60
27712;BME280;2377;51.734;8.950;2023-03-01T08:51:47;98935.03;;;2.16;64.53
27712;BME280;2377;51.734;8.950;2023-03-01T08:54:17;98929.47;;;2.32;65.14
27712;BME280;2377;51.734;8.950;2023-03-01T08:56:46;98926.97;;;2.42;62.92
27712;BME280;2377;51.734;8.950;2023-03-01T08:59:15;98929.75;;;2.58;64.09
27712;BME280;2377;51.734;8.950;2023-03-01T09:01:42;98930.03;;;2.74;63.03
27712;BME280;2377;51.734;8.950;2023-03-01T09:04:10;98922.84;;;2.89;63.18
27712;BME280;2377;51.734;8.950;2023-03-01T09:06:37;98926.53;;;3.05;63.48
27712;BME280;2377;51.734;8.950;2023-03-01T09:09:10;98925.41;;;3.27;63.47
27712;BME280;2377;51.734;8.950;2023-03-01T09:11:40;98919.50;;;3.46;61.38
27712;BME280;2377;51.734;8.950;2023-03-01T09:14:07;98918.81;;;3.53;60.42
27712;BME280;2377;51.734;8.950;2023-03-01T09:16:34;98912.56;;;3.57;58.67
27712;BME280;2377;51.734;8.950;2023-03-01T09:19:03;98915.94;;;3.66;59.42
27712;BME280;2377;51.734;8.950;2023-03-01T09:21:31;98912.47;;;3.77;58.31
27712;BME280;2377;51.734;8.950;2023-03-01T09:23:58;98915.22;;;3.84;57.45
27712;BME280;2377;51.734;8.950;2023-03-01T09:26:27;98914.13;;;3.86;58.83
27712;BME280;2377;51.734;8.950;2023-03-01T09:28:55;98918.72;;;4.00;58.58
27712;BME280;2377;51.734;8.950;2023-03-01T09:31:24;98919.53;;;4.19;58.70
27712;BME280;2377;51.734;8.950;2023-03-01T09:33:53;98917.66;;;4.39;58.47
27712;BME280;2377;51.734;8.950;2023-03-01T09:36:23;98915.84;;;4.49;56.45
27712;BME280;2377;51.734;8.950;2023-03-01T09:38:52;98918.88;;;4.53;55.92
27712;BME280;2377;51.734;8.950;2023-03-01T09:41:38;98917.72;;;4.65;55.56
27712;BME280;2377;51.734;8.950;2023-03-01T09:44:21;98912.66;;;4.65;55.16
27712;BME280;2377;51.734;8.950;2023-03-01T09:46:51;98912.13;;;4.79;55.62
27712;BME280;2377;51.734;8.950;2023-03-01T09:49:21;98905.38;;;4.88;55.28
27712;BME280;2377;51.734;8.950;2023-03-01T09:52:00;98916.94;;;4.91;53.73
27712;BME280;2377;51.734;8.950;2023-03-01T09:54:31;98913.97;;;4.95;54.19
27712;BME280;2377;51.734;8.950;2023-03-01T09:57:13;98918.28;;;5.03;54.02
27712;BME280;2377;51.734;8.950;2023-03-01T10:00:07;98916.94;;;5.17;55.32
27712;BME280;2377;51.734;8.950;2023-03-01T10:02:43;98906.09;;;5.24;53.99
27712;BME280;2377;51.734;8.950;2023-03-01T10:05:31;98910.97;;;5.18;54.73
27712;BME280;2377;51.734;8.950;2023-03-01T10:08:25;98905.50;;;5.13;53.79
27712;BME280;2377;51.734;8.950;2023-03-01T10:10:55;98911.69;;;5.10;52.59
27712;BME280;2377;51.734;8.950;2023-03-01T10:13:32;98902.19;;;5.12;53.28
27712;BME280;2377;51.734;8.950;2023-03-01T10:16:11;98905.38;;;5.14;55.14
27712;BME280;2377;51.734;8.950;2023-03-01T10:18:43;98896.22;;;5.21;54.47
27712;BME280;2377;51.734;8.950;2023-03-01T10:21:17;98896.47;;;5.36;54.79
27712;BME280;2377;51.734;8.950;2023-03-01T10:23:46;98895.72;;;5.44;54.96
27712;BME280;2377;51.734;8.950;2023-03-01T10:26:37;98887.47;;;5.50;53.52
27712;BME280;2377;51.734;8.950;2023-03-01T10:29:10;98886.56;;;5.51;53.65
27712;BME280;2377;51.734;8.950;2023-03-01T10:31:41;98884.47;;;5.46;52.09
27712;BME280;2377;51.734;8.950;2023-03-01T10:34:16;98875.88;;;5.39;52.61
27712;BME280;2377;51.734;8.950;2023-03-01T10:36:47;98872.72;;;5.37;52.88
27712;BME280;2377;51.734;8.950;2023-03-01T10:39:18;98865.75;;;5.39;53.26
27712;BME280;2377;51.734;8.950;2023-03-01T10:42:00;98871.59;;;5.40;53.97
27712;BME280;2377;51.734;8.950;2023-03-01T10:44:44;98866.69;;;5.38;52.69
27712;BME280;2377;51.734;8.950;2023-03-01T10:47:18;98867.78;;;5.36;54.13
27712;BME280;2377;51.734;8.950;2023-03-01T10:50:00;98866.84;;;5.37;54.71
27712;BME280;2377;51.734;8.950;2023-03-01T10:52:33;98865.44;;;5.42;54.62
27712;BME280;2377;51.734;8.950;2023-03-01T10:55:23;98868.16;;;5.49;55.09
27712;BME280;2377;51.734;8.950;2023-03-01T10:58:08;98868.63;;;5.44;54.59
27712;BME280;2377;51.734;8.950;2023-03-01T11:00:49;98864.97;;;5.39;54.96
27712;BME280;2377;51.734;8.950;2023-03-01T11:03:22;98867.94;;;5.34;54.82
27712;BME280;2377;51.734;8.950;2023-03-01T11:06:00;98865.75;;;5.39;55.78
27712;BME280;2377;51.734;8.950;2023-03-01T11:08:33;98865.75;;;5.47;54.56
27712;BME280;2377;51.734;8.950;2023-03-01T11:11:19;98857.06;;;5.50;52.86
27712;BME280;2377;51.734;8.950;2023-03-01T11:14:01;98854.88;;;5.55;53.38
27712;BME280;2377;51.734;8.950;2023-03-01T11:16:35;98854.75;;;5.65;54.58
27712;BME280;2377;51.734;8.950;2023-03-01T11:19:19;98855.22;;;5.68;54.13
27712;BME280;2377;51.734;8.950;2023-03-01T11:22:01;98846.03;;;5.67;53.27
27712;BME280;2377;51.734;8.950;2023-03-01T11:24:38;98848.25;;;5.70;53.81
27712;BME280;2377;51.734;8.950;2023-03-01T11:27:18;98845.56;;;5.72;52.71
27712;BME280;2377;51.734;8.950;2023-03-01T11:29:54;98851.13;;;5.76;52.02
27712;BME280;2377;51.734;8.950;2023-03-01T11:32:30;98847.66;;;5.77;51.79
27712;BME280;2377;51.734;8.950;2023-03-01T11:35:08;98852.88;;;5.75;52.64
27712;BME280;2377;51.734;8.950;2023-03-01T11:37:44;98852.53;;;5.78;52.36
27712;BME280;2377;51.734;8.950;2023-03-01T11:40:24;98847.31;;;5.80;52.41
27712;BME280;2377;51.734;8.950;2023-03-01T11:43:04;98849.22;;;5.78;51.47
27712;BME280;2377;51.734;8.950;2023-03-01T11:45:58;98849.53;;;5.75;52.65
27712;BME280;2377;51.734;8.950;2023-03-01T11:48:52;98851.25;;;5.66;52.54
27712;BME280;2377;51.734;8.950;2023-03-01T11:51:38;98847.94;;;5.73;52.89
27712;BME280;2377;51.734;8.950;2023-03-01T11:54:24;98842.56;;;5.77;51.75
27712;BME280;2377;51.734;8.950;2023-03-01T11:57:17;98837.78;;;5.73;50.83
27712;BME280;2377;51.734;8.950;2023-03-01T12:00:10;98836.81;;;5.66;51.06
27712;BME280;2377;51.734;8.950;2023-03-01T12:03:16;98834.63;;;5.71;51.83
27712;BME280;2377;51.734;8.950;2023-03-01T12:06:28;98827.16;;;5.70;49.95
27712;BME280;2377;51.734;8.950;2023-03-01T12:09:20;98826.38;;;5.69;50.18
27712;BME280;2377;51.734;8.950;2023-03-01T12:12:11;98828.47;;;5.74;50.88
27712;BME280;2377;51.734;8.950;2023-03-01T12:15:28;98823.22;;;5.76;51.29
27712;BME280;2377;51.734;8.950;2023-03-01T12:18:16;98817.53;;;5.82;50.76
27712;BME280;2377;51.734;8.950;2023-03-01T12:20:58;98809.78;;;5.83;52.53
27712;BME280;2377;51.734;8.950;2023-03-01T12:24:15;98809.41;;;5.78;51.74
27712;BME280;2377;51.734;8.950;2023-03-01T12:27:10;98807.84;;;5.77;51.70
27712;BME280;2377;51.734;8.950;2023-03-01T12:29:52;98806.75;;;5.80;50.85
27712;BME280;2377;51.734;8.950;2023-03-01T12:32:42;98802.31;;;5.82;51.10
27712;BME280;2377;51.734;8.950;2023-03-01T12:35:53;98792.31;;;5.80;51.02
27712;BME280;2377;51.734;8.950;2023-03-01T12:38:33;98793.09;;;5.81;49.88
27712;BME280;2377;51.734;8.950;2023-03-01T12:41:42;98789.91;;;5.70;49.80
27712;BME280;2377;51.734;8.950;2023-03-01T12:44:42;98792.13;;;5.73;49.18
27712;BME280;2377;51.734;8.950;2023-03-01T12:47:35;98785.34;;;5.82;51.03
27712;BME280;2377;51.734;8.950;2023-03-01T12:50:14;98775.34;;;5.89;49.53
27712;BME280;2377;51.734;8.950;2023-03-01T12:52:48;98774.56;;;5.88;49.53
27712;BME280;2377;51.734;8.950;2023-03-01T12:55:31;98769.63;;;5.87;48.67
27712;BME280;2377;51.734;8.950;2023-03-01T12:58:11;98772.66;;;5.82;48.04
27712;BME280;2377;51.734;8.950;2023-03-01T13:00:59;98769.94;;;5.92;49.94
27712;BME280;2377;51.734;8.950;2023-03-01T13:06:39;98752.25;;;6.00;49.42
27712;BME280;2377;51.734;8.950;2023-03-01T13:09:20;98747.81;;;6.02;48.25
27712;BME280;2377;51.734;8.950;2023-03-01T13:11:51;98755.41;;;6.02;48.38
27712;BME280;2377;51.734;8.950;2023-03-01T13:14:46;98746.06;;;6.03;48.85
27712;BME280;2377;51.734;8.950;2023-03-01T13:17:40;98747.47;;;6.05;49.42
27712;BME280;2377;51.734;8.950;2023-03-01T13:20:15;98744.47;;;6.10;48.12
27712;BME280;2377;51.734;8.950;2023-03-01T13:22:46;98752.53;;;6.13;48.61
27712;BME280;2377;51.734;8.950;2023-03-01T13:25:17;98746.66;;;6.13;48.85
27712;BME280;2377;51.734;8.950;2023-03-01T13:27:45;98748.41;;;6.21;48.75
27712;BME280;2377;51.734;8.950;2023-03-01T13:30:42;98745.56;;;6.24;48.21
27712;BME280;2377;51.734;8.950;2023-03-01T13:33:44;98742.88;;;6.17;47.17
27712;BME280;2377;51.734;8.950;2023-03-01T13:36:48;98735.56;;;6.22;47.45
27712;BME280;2377;51.734;8.950;2023-03-01T13:39:31;98734.44;;;6.25;47.61
27712;BME280;2377;51.734;8.950;2023-03-01T13:42:33;98732.88;;;6.24;48.22
27712;BME280;2377;51.734;8.950;2023-03-01T13:45:01;98733.31;;;6.27;48.09
27712;BME280;2377;51.734;8.950;2023-03-01T13:47:30;98728.72;;;6.31;48.40
27712;BME280;2377;51.734;8.950;2023-03-01T13:50:02;98727.47;;;6.27;48.63
27712;BME280;2377;51.734;8.950;2023-03-01T13:52:39;98715.72;;;6.26;48.25